createdAt,value
2018-12-23T00:00:12.404Z,22.53
2018-12-23T00:02:40.035Z,22.13
2018-12-23T00:05:11.410Z,21.60
2018-12-23T00:07:36.992Z,22.40
2018-12-23T00:10:06.681Z,21.97
2018-12-23T00:12:34.156Z,23.50
2018-12-23T00:15:01.639Z,21.77
2018-12-23T00:17:29.133Z,21.20
2018-12-23T00:19:56.611Z,21.47
2018-12-23T00:22:24.084Z,20.87
2018-12-23T00:24:51.625Z,21.70
2018-12-23T00:27:19.101Z,21.53
2018-12-23T00:29:46.578Z,22.80
2018-12-23T00:32:14.087Z,19.97
2018-12-23T00:34:41.561Z,20.80
2018-12-23T00:37:09.032Z,20.20
2018-12-23T00:39:36.529Z,20.40
2018-12-23T00:42:04.096Z,20.17
2018-12-23T00:44:31.573Z,20.20
2018-12-23T00:46:59.083Z,20.63
2018-12-23T00:49:26.649Z,20.73
2018-12-23T00:51:54.125Z,20.40
2018-12-23T00:54:21.693Z,20.00
2018-12-23T00:56:49.169Z,19.93
2018-12-23T00:59:16.645Z,19.37
2018-12-23T01:01:44.156Z,19.87
2018-12-23T01:04:11.628Z,20.60
2018-12-23T01:06:39.126Z,19.83
2018-12-23T01:09:06.925Z,20.37
2018-12-23T01:11:34.401Z,21.10
2018-12-23T01:14:01.892Z,20.17
2018-12-23T01:16:29.396Z,20.90
2018-12-23T01:18:56.880Z,20.73
2018-12-23T01:21:24.396Z,19.53
2018-12-23T01:23:51.920Z,21.93
2018-12-23T01:26:19.388Z,22.40
2018-12-23T01:28:46.861Z,21.97
2018-12-23T01:31:14.356Z,20.50
2018-12-23T01:33:41.837Z,20.57
2018-12-23T01:36:09.317Z,19.10
2018-12-23T01:38:36.813Z,19.80
2018-12-23T01:41:04.492Z,20.73
2018-12-23T01:43:32.277Z,20.80
2018-12-23T01:45:59.784Z,21.17
2018-12-23T01:48:27.532Z,20.33
2018-12-23T01:50:55.005Z,20.10
2018-12-23T01:53:22.502Z,19.47
2018-12-23T01:55:49.972Z,19.03
2018-12-23T01:58:17.444Z,19.73
2018-12-23T02:00:44.952Z,18.47
2018-12-23T02:03:12.433Z,19.60
2018-12-23T02:05:46.004Z,19.00
2018-12-23T02:08:09.419Z,18.73
2018-12-23T02:10:36.892Z,18.50
2018-12-23T02:13:04.466Z,17.93
2018-12-23T02:15:31.968Z,19.00
2018-12-23T02:17:59.440Z,17.23
2018-12-23T02:20:26.918Z,18.67
2018-12-23T02:22:54.420Z,17.60
2018-12-23T02:25:21.893Z,20.43
2018-12-23T02:27:49.373Z,17.43
2018-12-23T02:30:17.105Z,19.67
2018-12-23T02:32:44.578Z,18.60
2018-12-23T02:35:12.053Z,18.67
2018-12-23T02:37:39.558Z,19.20
2018-12-23T02:40:07.028Z,18.30
2018-12-23T02:42:34.505Z,17.73
2018-12-23T02:45:02.038Z,18.37
2018-12-23T02:47:29.513Z,18.40
2018-12-23T02:49:57.038Z,19.63
2018-12-23T02:52:24.841Z,17.97
2018-12-23T02:54:52.307Z,18.87
2018-12-23T02:57:19.780Z,18.53
2018-12-23T02:59:47.279Z,18.07
2018-12-23T03:02:14.756Z,18.07
2018-12-23T03:04:42.236Z,16.83
2018-12-23T03:07:09.731Z,16.97
2018-12-23T03:09:37.196Z,21.80
2018-12-23T03:12:04.670Z,19.70
2018-12-23T03:14:32.170Z,18.30
2018-12-23T03:16:59.642Z,17.70
2018-12-23T03:19:27.114Z,16.73
2018-12-23T03:21:54.615Z,17.33
2018-12-23T03:24:22.091Z,17.13
2018-12-23T03:26:49.564Z,16.87
2018-12-23T03:29:17.063Z,16.73
2018-12-23T03:31:44.551Z,17.33
2018-12-23T03:34:12.024Z,17.50
2018-12-23T03:36:39.532Z,17.60
2018-12-23T03:39:07.008Z,17.60
2018-12-23T03:41:34.487Z,17.13
2018-12-23T03:44:01.989Z,16.60
2018-12-23T03:46:29.460Z,16.93
2018-12-23T03:48:56.943Z,18.23
2018-12-23T03:51:24.444Z,19.50
2018-12-23T03:53:51.923Z,19.73
2018-12-23T03:56:19.393Z,18.93
2018-12-23T03:58:46.928Z,18.47
2018-12-23T04:01:14.401Z,18.17
2018-12-23T04:03:41.873Z,16.07
2018-12-23T04:06:09.384Z,17.07
2018-12-23T04:08:36.861Z,15.93
2018-12-23T04:11:04.332Z,17.77
2018-12-23T04:13:31.851Z,18.60
2018-12-23T04:15:59.321Z,19.90
2018-12-23T04:18:26.837Z,18.17
2018-12-23T04:20:54.347Z,18.27
2018-12-23T04:23:21.824Z,19.13
2018-12-23T04:25:49.298Z,17.60
2018-12-23T04:28:16.809Z,17.97
2018-12-23T04:30:44.281Z,18.70
2018-12-23T04:33:11.756Z,18.50
2018-12-23T04:35:39.252Z,18.57
2018-12-23T04:38:06.726Z,18.40
2018-12-23T04:40:34.196Z,18.47
2018-12-23T04:43:01.701Z,19.77
2018-12-23T04:45:29.279Z,20.37
2018-12-23T04:47:56.765Z,23.37
2018-12-23T04:50:24.269Z,20.13
2018-12-23T04:52:51.744Z,19.57
2018-12-23T04:55:19.217Z,18.87
2018-12-23T04:57:46.833Z,18.50
2018-12-23T05:00:14.484Z,19.20
2018-12-23T05:02:41.960Z,19.20
2018-12-23T05:05:09.460Z,19.23
2018-12-23T05:07:36.936Z,22.07
2018-12-23T05:10:04.408Z,23.63
2018-12-23T05:12:31.947Z,22.73
2018-12-23T05:14:59.497Z,23.77
2018-12-23T05:17:26.968Z,23.60
2018-12-23T05:19:54.469Z,24.57
2018-12-23T05:22:22.065Z,24.37
2018-12-23T05:24:49.532Z,23.83
2018-12-23T05:27:17.038Z,23.33
2018-12-23T05:29:44.516Z,22.87
2018-12-23T05:32:11.984Z,24.03
2018-12-23T05:34:39.494Z,23.80
2018-12-23T05:37:06.968Z,22.33
2018-12-23T05:39:34.440Z,23.00
2018-12-23T05:42:01.947Z,22.83
2018-12-23T05:44:29.417Z,22.17
2018-12-23T05:46:56.894Z,22.70
2018-12-23T05:49:24.396Z,21.30
2018-12-23T05:51:51.864Z,21.90
2018-12-23T05:54:19.714Z,22.83
2018-12-23T05:56:47.229Z,20.10
2018-12-23T05:59:14.706Z,20.87
2018-12-23T06:01:42.181Z,22.23
2018-12-23T06:04:09.681Z,21.40
2018-12-23T06:06:37.261Z,20.77
2018-12-23T06:09:05.825Z,21.50
2018-12-23T06:11:33.322Z,22.20
2018-12-23T06:14:00.791Z,20.60
2018-12-23T06:16:28.302Z,20.23
2018-12-23T06:18:55.876Z,21.67
2018-12-23T06:21:23.348Z,20.17
2018-12-23T06:23:50.821Z,20.90
2018-12-23T06:26:18.328Z,21.03
2018-12-23T06:28:45.806Z,22.53
2018-12-23T06:31:13.279Z,22.13
2018-12-23T06:33:40.785Z,24.43
2018-12-23T06:36:08.259Z,21.70
2018-12-23T06:38:35.733Z,22.83
2018-12-23T06:41:03.237Z,22.13
2018-12-23T06:43:30.706Z,22.73
2018-12-23T06:45:58.180Z,21.23
2018-12-23T06:48:25.683Z,20.47
2018-12-23T06:50:53.160Z,20.80
2018-12-23T06:53:20.634Z,21.47
2018-12-23T06:55:48.135Z,21.20
2018-12-23T06:58:15.600Z,23.03
2018-12-23T07:00:43.075Z,22.97
2018-12-23T07:03:10.571Z,22.80
2018-12-23T07:05:38.046Z,24.00
2018-12-23T07:08:05.525Z,22.60
2018-12-23T07:10:33.025Z,23.30
2018-12-23T07:13:00.502Z,22.67
2018-12-23T07:15:28.022Z,24.37
2018-12-23T07:17:55.520Z,23.50
2018-12-23T07:20:22.990Z,22.73
2018-12-23T07:22:50.461Z,22.07
2018-12-23T07:25:17.975Z,21.40
2018-12-23T07:27:45.444Z,22.93
2018-12-23T07:30:12.913Z,22.80
2018-12-23T07:32:40.416Z,21.63
2018-12-23T07:35:07.888Z,24.80
2018-12-23T07:37:35.363Z,22.40
2018-12-23T07:40:02.883Z,23.67
2018-12-23T07:42:30.361Z,24.03
2018-12-23T07:44:57.836Z,22.43
2018-12-23T07:47:25.348Z,22.83
2018-12-23T07:49:52.863Z,23.00
2018-12-23T07:52:20.329Z,23.80
2018-12-23T07:54:47.927Z,24.77
2018-12-23T07:57:15.450Z,25.93
2018-12-23T07:59:43.008Z,26.77
2018-12-23T08:02:10.505Z,25.73
2018-12-23T08:04:37.986Z,25.33
2018-12-23T08:07:05.462Z,25.83
2018-12-23T08:09:32.960Z,24.50
2018-12-23T08:12:00.443Z,24.33
2018-12-23T08:14:27.965Z,24.73
2018-12-23T08:16:55.453Z,25.43
2018-12-23T08:19:22.944Z,25.07
2018-12-23T08:21:50.426Z,25.77
2018-12-23T08:24:17.931Z,30.93
2018-12-23T08:26:45.400Z,30.13
2018-12-23T08:29:12.881Z,27.50
2018-12-23T08:31:40.377Z,27.63
2018-12-23T08:34:07.874Z,31.80
2018-12-23T08:36:35.420Z,25.93
2018-12-23T08:39:05.032Z,25.47
2018-12-23T08:41:33.075Z,25.47
2018-12-23T08:44:00.940Z,28.97
2018-12-23T08:46:28.488Z,27.70
2018-12-23T08:48:56.007Z,27.53
2018-12-23T08:51:23.558Z,27.40
2018-12-23T08:53:51.123Z,27.17
2018-12-23T08:56:18.673Z,26.87
2018-12-23T08:58:46.179Z,27.73
2018-12-23T09:01:13.684Z,27.33
2018-12-23T09:03:41.168Z,27.97
2018-12-23T09:06:08.662Z,31.53
2018-12-23T09:08:36.186Z,28.33
2018-12-23T09:11:03.733Z,27.03
2018-12-23T09:13:31.210Z,27.33
2018-12-23T09:15:58.752Z,27.50
2018-12-23T09:18:26.851Z,27.47
2018-12-23T09:20:54.331Z,28.17
2018-12-23T09:23:21.860Z,26.70
2018-12-23T09:25:49.339Z,25.63
2018-12-23T09:28:16.826Z,27.20
2018-12-23T09:30:44.367Z,30.40
2018-12-23T09:33:11.848Z,30.50
2018-12-23T09:35:39.340Z,27.80
2018-12-23T09:38:06.938Z,30.70
2018-12-23T09:40:34.414Z,31.80
2018-12-23T09:43:01.887Z,29.43
2018-12-23T09:45:29.405Z,31.03
2018-12-23T09:47:56.896Z,29.23
2018-12-23T09:50:24.365Z,25.23
2018-12-23T09:52:51.875Z,24.17
2018-12-23T09:55:19.348Z,24.10
2018-12-23T09:57:46.817Z,22.57
2018-12-23T10:00:14.448Z,21.00
2018-12-23T10:02:41.920Z,21.47
2018-12-23T10:05:09.509Z,21.80
2018-12-23T10:07:37.010Z,21.60
2018-12-23T10:10:06.465Z,21.03
2018-12-23T10:12:33.948Z,22.77
2018-12-23T10:15:01.459Z,22.07
2018-12-23T10:17:28.932Z,23.13
2018-12-23T10:19:56.409Z,21.90
2018-12-23T10:22:23.942Z,23.40
2018-12-23T10:24:51.413Z,22.70
2018-12-23T10:27:18.893Z,23.27
2018-12-23T10:29:46.401Z,23.27
2018-12-23T10:32:13.879Z,23.13
2018-12-23T10:34:41.349Z,25.53
2018-12-23T10:37:08.876Z,22.83
2018-12-23T10:39:36.349Z,23.60
2018-12-23T10:42:03.822Z,21.50
2018-12-23T10:44:31.323Z,21.20
2018-12-23T10:46:58.990Z,19.67
2018-12-23T10:49:26.461Z,21.20
2018-12-23T10:51:53.964Z,20.93
2018-12-23T10:54:21.444Z,20.23
2018-12-23T10:56:48.922Z,21.27
2018-12-23T10:59:16.455Z,22.33
2018-12-23T11:01:43.928Z,23.70
2018-12-23T11:04:11.393Z,23.47
2018-12-23T11:06:39.164Z,23.00
2018-12-23T11:09:06.649Z,22.70
2018-12-23T11:11:34.130Z,22.30
2018-12-23T11:14:01.634Z,23.77
2018-12-23T11:17:01.802Z,23.47
2018-12-23T11:19:30.453Z,23.20
2018-12-23T11:21:59.009Z,24.03
2018-12-23T11:24:27.563Z,23.80
2018-12-23T11:26:56.153Z,24.50
2018-12-23T11:29:24.741Z,23.77
2018-12-23T11:31:54.833Z,23.70
2018-12-23T11:34:23.422Z,23.90
2018-12-23T11:36:51.990Z,23.03
2018-12-23T11:39:20.550Z,23.53
2018-12-23T11:41:49.125Z,24.83
2018-12-23T11:44:17.683Z,24.13
2018-12-23T11:46:46.236Z,21.60
2018-12-23T11:49:14.822Z,22.17
2018-12-23T11:51:43.437Z,20.53
2018-12-23T11:54:11.993Z,20.50
2018-12-23T11:56:40.644Z,20.77
2018-12-23T11:59:12.755Z,20.47
2018-12-23T12:01:41.354Z,18.53
2018-12-23T12:04:09.945Z,20.10
2018-12-23T12:06:38.489Z,19.83
2018-12-23T12:09:07.405Z,20.53
2018-12-23T12:11:36.094Z,18.10
2018-12-23T12:14:04.901Z,18.50
2018-12-23T12:16:33.449Z,18.37
2018-12-23T12:19:02.043Z,17.37
2018-12-23T12:21:30.591Z,16.97
2018-12-23T12:23:59.147Z,17.80
2018-12-23T12:26:27.734Z,16.17
2018-12-23T12:28:56.282Z,16.07
2018-12-23T12:31:24.837Z,16.50
2018-12-23T12:33:53.421Z,17.63
2018-12-23T12:36:21.981Z,15.73
2018-12-23T12:38:52.252Z,17.53
2018-12-23T12:41:20.926Z,17.10
2018-12-23T12:43:49.573Z,18.07
2018-12-23T12:46:18.240Z,20.17
2018-12-23T12:48:46.858Z,17.30
2018-12-23T12:51:15.424Z,16.93
2018-12-23T12:53:43.967Z,16.10
2018-12-23T12:56:12.613Z,18.63
2018-12-23T12:58:41.245Z,16.00
2018-12-23T13:01:09.867Z,16.30
2018-12-23T13:03:38.527Z,15.83
2018-12-23T13:06:07.097Z,15.40
2018-12-23T13:08:35.786Z,14.70
2018-12-23T13:11:04.605Z,13.37
2018-12-23T13:13:33.158Z,12.73
2018-12-23T13:16:01.710Z,13.40
2018-12-23T13:18:30.301Z,14.53
2018-12-23T13:21:01.021Z,12.53
2018-12-23T13:23:34.442Z,14.40
2018-12-23T13:26:04.211Z,13.50
2018-12-23T13:28:32.844Z,13.30
2018-12-23T13:31:01.465Z,13.43
2018-12-23T13:33:30.090Z,13.37
2018-12-23T13:35:58.647Z,13.87
2018-12-23T13:38:27.332Z,13.10
2018-12-23T13:41:07.909Z,14.67
2018-12-23T13:43:48.500Z,14.53
2018-12-23T13:46:23.152Z,16.43
2018-12-23T13:48:57.811Z,14.20
2018-12-23T13:51:48.789Z,15.53
2018-12-23T13:54:41.489Z,15.53
2018-12-23T13:57:36.333Z,16.77
2018-12-23T14:00:44.201Z,14.00
2018-12-23T14:03:35.635Z,13.53
2018-12-23T14:06:10.475Z,14.43
2018-12-23T14:08:47.956Z,15.27
2018-12-23T14:11:19.591Z,15.77
2018-12-23T14:13:48.146Z,14.67
2018-12-23T14:16:16.736Z,14.70
2018-12-23T14:18:45.362Z,15.30
2018-12-23T14:21:13.987Z,14.83
2018-12-23T14:23:42.574Z,14.23
2018-12-23T14:26:11.206Z,14.53
2018-12-23T14:28:39.760Z,14.93
2018-12-23T14:31:08.361Z,13.53
2018-12-23T14:33:36.922Z,14.07
2018-12-23T14:36:05.478Z,13.73
2018-12-23T14:38:34.057Z,13.43
2018-12-23T14:41:02.618Z,15.77
2018-12-23T14:43:31.169Z,13.97
2018-12-23T14:45:59.766Z,15.73
2018-12-23T14:48:28.323Z,15.93
2018-12-23T14:50:56.875Z,13.80
2018-12-23T14:53:25.450Z,17.30
2018-12-23T14:55:54.011Z,13.53
2018-12-23T14:58:22.641Z,12.23
2018-12-23T15:00:51.294Z,12.80
2018-12-23T15:03:19.845Z,13.03
2018-12-23T15:05:48.389Z,14.93
2018-12-23T15:08:17.126Z,13.20
2018-12-23T15:10:45.682Z,11.97
2018-12-23T15:13:14.245Z,15.23
2018-12-23T15:15:42.841Z,13.57
2018-12-23T15:18:11.463Z,16.03
2018-12-23T15:20:40.010Z,12.83
2018-12-23T15:23:10.836Z,15.10
2018-12-23T15:25:38.873Z,11.80
2018-12-23T15:28:07.432Z,10.03
2018-12-23T15:30:36.009Z,11.60
2018-12-23T15:33:04.629Z,9.90
2018-12-23T15:35:33.757Z,12.43
2018-12-23T15:38:02.361Z,10.90
2018-12-23T15:40:30.982Z,9.23
2018-12-23T15:42:59.538Z,8.70
2018-12-23T15:45:28.116Z,8.67
2018-12-23T15:47:56.670Z,10.30
2018-12-23T15:50:25.209Z,9.70
2018-12-23T15:52:53.789Z,9.30
2018-12-23T15:55:22.342Z,9.57
2018-12-23T15:57:50.889Z,11.57
2018-12-23T16:00:19.469Z,10.10
2018-12-23T16:02:48.024Z,10.50
2018-12-23T16:05:16.573Z,11.10
2018-12-23T16:07:45.157Z,11.37
2018-12-23T16:10:13.714Z,10.50
2018-12-23T16:12:42.265Z,10.97
2018-12-23T16:15:10.846Z,11.37
2018-12-23T16:17:39.669Z,10.27
2018-12-23T16:20:10.963Z,10.60
2018-12-23T16:22:39.569Z,11.03
2018-12-23T16:25:08.117Z,9.90
2018-12-23T16:27:36.672Z,10.83
2018-12-23T16:30:08.785Z,11.17
2018-12-23T16:32:37.334Z,10.33
2018-12-23T16:35:06.021Z,10.10
2018-12-23T16:37:34.606Z,10.77
2018-12-23T16:40:03.905Z,10.63
2018-12-23T16:42:32.465Z,10.67
2018-12-23T16:45:01.053Z,10.33
2018-12-23T16:47:29.769Z,10.50
2018-12-23T16:49:58.317Z,10.47
2018-12-23T16:52:26.913Z,10.90
2018-12-23T16:54:55.456Z,11.37
2018-12-23T16:57:24.018Z,10.87
2018-12-23T16:59:52.617Z,10.40
2018-12-23T17:02:21.241Z,9.73
2018-12-23T17:04:49.790Z,10.20
2018-12-23T17:07:18.372Z,10.90
2018-12-23T17:09:46.926Z,11.17
2018-12-23T17:12:15.486Z,10.80
2018-12-23T17:14:44.077Z,10.80
2018-12-23T17:17:12.643Z,12.43
2018-12-23T17:19:41.282Z,12.57
2018-12-23T17:22:09.870Z,11.63
2018-12-23T17:24:38.502Z,11.23
2018-12-23T17:27:07.049Z,12.17
2018-12-23T17:29:35.641Z,18.33
2018-12-23T17:32:04.301Z,14.73
2018-12-23T17:34:32.855Z,12.20
2018-12-23T17:37:01.438Z,11.53
2018-12-23T17:39:30.007Z,11.47
2018-12-23T17:41:58.672Z,11.43
2018-12-23T17:44:27.286Z,12.43
2018-12-23T17:46:55.837Z,11.33
2018-12-23T17:49:24.390Z,12.23
2018-12-23T17:51:52.973Z,11.70
2018-12-23T17:54:21.546Z,10.63
2018-12-23T17:56:50.168Z,10.57
2018-12-23T17:59:18.753Z,12.37
2018-12-23T18:01:47.322Z,11.47
2018-12-23T18:04:15.945Z,12.50
2018-12-23T18:06:44.689Z,13.17
2018-12-23T18:09:14.421Z,12.37
2018-12-23T18:11:43.167Z,15.00
2018-12-23T18:14:12.049Z,13.13
2018-12-23T18:16:40.656Z,11.97
2018-12-23T18:19:09.342Z,11.50
2018-12-23T18:21:37.926Z,12.60
2018-12-23T18:24:06.563Z,12.43
2018-12-23T18:26:35.189Z,12.27
2018-12-23T18:29:03.781Z,11.90
2018-12-23T18:31:32.335Z,12.83
2018-12-23T18:34:00.957Z,11.97
2018-12-23T18:36:29.547Z,12.33
2018-12-23T18:38:58.097Z,11.83
2018-12-23T18:41:26.646Z,13.67
2018-12-23T18:43:55.318Z,14.00
2018-12-23T18:46:23.918Z,12.93
2018-12-23T18:48:52.469Z,13.53
2018-12-23T18:51:21.064Z,15.87
2018-12-23T18:53:49.613Z,14.77
2018-12-23T18:56:18.235Z,14.77
2018-12-23T18:58:46.812Z,14.30
2018-12-23T19:01:15.515Z,13.47
2018-12-23T19:03:44.070Z,14.07
2018-12-23T19:06:12.718Z,13.03
2018-12-23T19:08:44.677Z,13.80
2018-12-23T19:11:48.105Z,13.40
2018-12-23T19:14:38.076Z,13.73
2018-12-23T19:17:24.710Z,13.50
2018-12-23T19:19:59.313Z,13.50
2018-12-23T19:22:34.189Z,13.53
2018-12-23T19:25:23.537Z,13.53
2018-12-23T19:28:16.061Z,13.63
2018-12-23T19:30:50.603Z,12.57
2018-12-23T19:33:34.056Z,13.67
2018-12-23T19:36:11.385Z,14.03
2018-12-23T19:38:54.789Z,14.40
2018-12-23T19:41:30.847Z,14.87
2018-12-23T19:44:17.025Z,13.80
2018-12-23T19:46:57.637Z,13.73
2018-12-23T19:49:51.893Z,13.70
2018-12-23T19:52:23.643Z,13.67
2018-12-23T19:55:03.881Z,12.90
2018-12-23T19:57:56.664Z,13.07
2018-12-23T20:00:39.656Z,12.73
2018-12-23T20:03:19.618Z,13.43
2018-12-23T20:06:13.816Z,12.97
2018-12-23T20:08:51.453Z,11.53
2018-12-23T20:11:37.722Z,11.77
2018-12-23T20:14:34.977Z,11.50
2018-12-23T20:17:06.638Z,11.73
2018-12-23T20:19:53.543Z,10.57
2018-12-23T20:22:25.272Z,11.70
2018-12-23T20:25:15.074Z,10.20
2018-12-23T20:28:07.844Z,10.63
2018-12-23T20:30:59.290Z,9.50
2018-12-23T20:33:39.873Z,11.00
2018-12-23T20:36:35.893Z,10.20
2018-12-23T20:39:28.668Z,9.43
2018-12-23T20:42:05.574Z,9.20
2018-12-23T20:44:49.350Z,10.10
2018-12-23T20:47:26.806Z,8.87
2018-12-23T20:50:04.377Z,8.97
2018-12-23T20:52:44.770Z,9.47
2018-12-23T20:55:34.347Z,9.33
2018-12-23T20:58:31.242Z,12.90
2018-12-23T21:01:19.419Z,10.53
2018-12-23T21:03:56.634Z,10.60
2018-12-23T21:06:47.546Z,10.70
2018-12-23T21:09:21.727Z,9.50
2018-12-23T21:12:09.798Z,20.77
2018-12-23T21:14:49.534Z,25.30
2018-12-23T21:17:26.848Z,9.47
2018-12-23T21:20:07.061Z,12.47
2018-12-23T21:22:44.309Z,9.70
2018-12-23T21:25:46.221Z,11.80
2018-12-23T21:28:26.411Z,14.20
2018-12-23T21:31:03.331Z,12.73
2018-12-23T21:33:43.709Z,10.30
2018-12-23T21:36:36.350Z,11.00
2018-12-23T21:39:16.730Z,11.97
2018-12-23T21:41:48.365Z,7.97
2018-12-23T21:44:38.168Z,8.87
2018-12-23T21:47:24.846Z,8.17
2018-12-23T21:50:11.575Z,6.83
2018-12-23T21:53:07.196Z,6.70
2018-12-23T21:56:07.015Z,7.63
2018-12-23T21:58:59.653Z,6.73
2018-12-23T22:01:31.305Z,5.53
2018-12-23T22:04:05.404Z,5.90
2018-12-23T22:06:37.133Z,6.07
2018-12-23T22:09:27.101Z,6.30
2018-12-23T22:12:01.606Z,5.77
2018-12-23T22:14:30.149Z,6.97
2018-12-23T22:16:58.770Z,7.37
2018-12-23T22:19:27.350Z,7.37
2018-12-23T22:21:55.969Z,7.50
2018-12-23T22:24:24.518Z,9.23
2018-12-23T22:26:53.106Z,7.97
2018-12-23T22:29:21.664Z,7.20
2018-12-23T22:31:50.209Z,6.60
2018-12-23T22:34:18.788Z,6.83
2018-12-23T22:36:47.337Z,6.93
2018-12-23T22:39:15.889Z,6.40
2018-12-23T22:41:44.505Z,5.80
2018-12-23T22:44:13.053Z,8.10
2018-12-23T22:46:41.610Z,8.33
2018-12-23T22:49:10.252Z,9.50
2018-12-23T22:51:38.810Z,10.73
2018-12-23T22:54:07.357Z,17.80
2018-12-23T22:56:35.944Z,14.10
2018-12-23T22:59:04.493Z,10.43
2018-12-23T23:01:33.046Z,12.43
2018-12-23T23:04:01.627Z,9.03
2018-12-23T23:06:30.173Z,11.20
2018-12-23T23:08:58.728Z,12.50
2018-12-23T23:11:27.533Z,11.37
2018-12-23T23:13:56.335Z,7.23
2018-12-23T23:16:24.887Z,6.50
2018-12-23T23:18:53.469Z,15.10
2018-12-23T23:21:22.011Z,7.53
2018-12-23T23:23:51.769Z,8.50
2018-12-23T23:26:20.426Z,14.33
2018-12-23T23:28:48.965Z,8.80
2018-12-23T23:31:18.217Z,11.07
2018-12-23T23:33:47.286Z,10.40
2018-12-23T23:36:15.829Z,7.60
2018-12-23T23:38:45.086Z,8.10
2018-12-23T23:41:13.745Z,10.77
2018-12-23T23:43:42.362Z,9.77
2018-12-23T23:46:10.910Z,7.57
2018-12-23T23:48:39.577Z,13.47
2018-12-23T23:51:08.122Z,7.70
2018-12-23T23:53:36.810Z,6.30
2018-12-23T23:56:05.385Z,5.50
2018-12-23T23:58:33.944Z,5.93
